Detall de PIREP

Printer-friendly versionPDF version

[2015/12/09 09:05:00]
Flight IATA:CT2112
Pilot Number:041
Company ICAO:CAT
Aircraft Type:F28/A
PAX:38
Departing Airport: LEVC
Destination Airport: LEZL
Alternate Airport:LEMG
Online: VATSIM
Route:ASTRO B28 VIBAS
Flight Level:FL230
No Slew and time accel
No pause
Crash detect
Detect pilot in Cockpit between each 30 and 45 minutes
09:05 Zero fuel Weight: 57506 Lbs, Fuel Weight: 13545 Lbs
09:05 VATSIM:LEVC 090900Z 00000KT 9999 BKN060 12/09 Q1037 NOSIG
09:05 VATSIM:LEZL 090900Z 06013KT CAVOK 13/07 Q1031 NOSIG
09:05 VOICE CATALONIAN
09:06 Parking Brakes off
09:19 Take-off
09:19 Take off Weight: 70754 Lbs
09:19 Wind: 310º @ 002 Knots Heading: 294º
09:19 POS N39º 29´ 26´´ W000º 29´ 07´´
09:19 Gear Up: 162 Knots
09:19 Flaps:1 at 162 Knots
09:19 Flaps:0 at 177 Knots
09:32 TOC
09:32 Fuel Weight: 11504 Lb
09:34 Wind:270º@023 Knots Heading: 234º Ground Speed: 354 Knots Altitude 23671 ft
09:49 Wind:227º@012 Knots Heading: 226º Ground Speed: 367 Knots Altitude 23353 ft
09:54 TOD
09:54 Fuel Weight: 9856 Lb
10:04 Wind:038º@003 Knots Heading: 271º Ground Speed: 286 Knots Altitude 10482 ft
10:19 Wind:060º@012 Knots Heading: 326º Ground Speed: 247 Knots Altitude 2007 ft
10:23 Flaps:1 at 243 Knots
10:23 Flaps:2 at 225 Knots
10:23 Flaps:3 at 209 Knots
10:23 Gear Down: 205 Knots
10:24 Flaps:4 at 183 Knots
10:24 Flaps:5 at 171 Knots
10:25 TouchDown:Rate -98 ft/min Speed: 119 Knots
10:25 VATSIM:LEZL 091000Z 06012KT CAVOK 15/07 Q1032 NOSIG
10:25 Land
10:25 Wind:065º@012 Knots
10:25 Heading: 090º
10:25 Flight Duration: 01:06
10:25 Landing Weight: 66018 Lbs
10:25 POS N37º 25´ 04´´ W005º 53´ 50´´
10:28 Parking brakes on
10:28 Block to Block Duration: 01:22
10:28 Final Fuel: 8401 Lbls
10:28 Spent Fuel: 5143 Lbls
10:28 Flight Length:335 NM
10:28 TOD Land Length: 137 NM

Exportar CSV

Powered by Drupal - Modified by Danger4k